createdAt,value
2023-02-25T00:00:53.901Z,980.70
2023-02-25T00:02:03.486Z,980.69
2023-02-25T00:02:55.927Z,980.72
2023-02-25T00:03:53.879Z,980.69
2023-02-25T00:04:53.862Z,980.67
2023-02-25T00:05:53.854Z,980.71
2023-02-25T00:06:53.844Z,980.68
2023-02-25T00:07:53.865Z,980.69
2023-02-25T00:08:53.828Z,980.70
2023-02-25T00:09:53.818Z,980.64
2023-02-25T00:10:53.812Z,980.72
2023-02-25T00:11:53.805Z,980.75
2023-02-25T00:12:53.855Z,980.71
2023-02-25T00:13:53.809Z,980.77
2023-02-25T00:14:53.782Z,980.73
2023-02-25T00:15:53.786Z,980.76
2023-02-25T00:16:53.827Z,980.71
2023-02-25T00:17:53.789Z,980.71
2023-02-25T00:18:53.748Z,980.73
2023-02-25T00:19:53.747Z,980.72
2023-02-25T00:20:53.733Z,980.70
2023-02-25T00:21:53.732Z,980.66
2023-02-25T00:22:53.745Z,980.60
2023-02-25T00:23:53.825Z,980.67
2023-02-25T00:24:53.737Z,980.64
2023-02-25T00:25:53.699Z,980.71
2023-02-25T00:26:53.693Z,980.78
2023-02-25T00:27:53.717Z,980.78
2023-02-25T00:28:53.690Z,980.78
2023-02-25T00:29:53.668Z,980.80
2023-02-25T00:30:53.795Z,980.79
2023-02-25T00:31:53.787Z,980.78
2023-02-25T00:32:53.767Z,980.83
2023-02-25T00:33:53.656Z,980.82
2023-02-25T00:34:53.649Z,980.81
2023-02-25T00:35:53.625Z,980.77
2023-02-25T00:36:53.673Z,980.78
2023-02-25T00:37:55.652Z,980.80
2023-02-25T00:38:53.606Z,980.76
2023-02-25T00:39:53.604Z,980.76
2023-02-25T00:40:53.589Z,980.81
2023-02-25T00:41:53.580Z,980.79
2023-02-25T00:42:53.602Z,980.78
2023-02-25T00:43:53.561Z,980.75
2023-02-25T00:44:53.556Z,980.76
2023-02-25T00:45:53.611Z,980.63
2023-02-25T00:46:53.547Z,980.81
2023-02-25T00:47:53.569Z,980.68
2023-02-25T00:48:53.536Z,980.82
2023-02-25T00:49:53.544Z,980.79
2023-02-25T00:50:53.510Z,980.73
2023-02-25T00:51:53.503Z,980.85
2023-02-25T00:52:53.516Z,980.87
2023-02-25T00:53:53.500Z,980.79
2023-02-25T00:54:53.489Z,980.80
2023-02-25T00:55:53.460Z,980.79
2023-02-25T00:56:54.474Z,980.89
2023-02-25T00:57:53.480Z,980.82
2023-02-25T00:58:54.455Z,980.83
2023-02-25T00:59:53.448Z,980.83
2023-02-25T01:00:53.442Z,980.72
2023-02-25T01:01:53.481Z,980.78
2023-02-25T01:02:53.513Z,980.87
2023-02-25T01:03:53.416Z,980.90
2023-02-25T01:04:53.397Z,980.94
2023-02-25T01:05:53.390Z,980.85
2023-02-25T01:06:53.399Z,980.94
2023-02-25T01:07:53.405Z,980.90
2023-02-25T01:08:53.400Z,980.92
2023-02-25T01:09:53.364Z,980.89
2023-02-25T01:10:53.349Z,980.98
2023-02-25T01:11:53.357Z,980.95
2023-02-25T01:12:53.337Z,980.90
2023-02-25T01:13:53.442Z,980.86
2023-02-25T01:14:53.326Z,980.82
2023-02-25T01:15:53.327Z,980.87
2023-02-25T01:16:53.307Z,980.87
2023-02-25T01:17:53.310Z,980.88
2023-02-25T01:18:53.323Z,980.81
2023-02-25T01:19:53.288Z,980.80
2023-02-25T01:20:53.299Z,980.87
2023-02-25T01:21:53.275Z,980.89
2023-02-25T01:22:53.263Z,980.89
2023-02-25T01:23:53.288Z,980.92
2023-02-25T01:24:53.251Z,980.88
2023-02-25T01:25:53.247Z,980.86
2023-02-25T01:26:53.237Z,980.86
2023-02-25T01:27:53.222Z,980.85
2023-02-25T01:28:53.256Z,980.86
2023-02-25T01:29:53.209Z,980.87
2023-02-25T01:30:53.347Z,980.86
2023-02-25T01:31:53.383Z,980.96
2023-02-25T01:32:53.211Z,981.00
2023-02-25T01:33:53.201Z,980.93
2023-02-25T01:34:53.170Z,980.95
2023-02-25T01:35:53.173Z,980.99
2023-02-25T01:36:53.194Z,981.06
2023-02-25T01:37:53.156Z,981.09
2023-02-25T01:38:53.173Z,981.09
2023-02-25T01:39:53.131Z,981.05
2023-02-25T01:40:54.149Z,981.05
2023-02-25T01:41:53.140Z,981.06
2023-02-25T01:42:53.114Z,981.17
2023-02-25T01:43:53.129Z,981.01
2023-02-25T01:44:53.091Z,981.13
2023-02-25T01:45:53.086Z,981.03
2023-02-25T01:46:53.105Z,981.09
2023-02-25T01:47:54.079Z,981.18
2023-02-25T01:48:53.124Z,981.14
2023-02-25T01:49:53.064Z,981.17
2023-02-25T01:50:53.053Z,981.20
2023-02-25T01:51:53.044Z,981.16
2023-02-25T01:52:53.073Z,981.12
2023-02-25T01:53:53.082Z,981.18
2023-02-25T01:54:53.029Z,981.09
2023-02-25T01:55:53.023Z,981.11
2023-02-25T01:56:53.020Z,981.11
2023-02-25T01:57:53.003Z,981.09
2023-02-25T01:58:53.050Z,981.08
2023-02-25T01:59:53.012Z,981.20
2023-02-25T02:00:53.055Z,981.15
2023-02-25T02:01:52.979Z,981.23
2023-02-25T02:02:53.024Z,981.16
2023-02-25T02:03:52.981Z,981.24
2023-02-25T02:04:52.950Z,981.18
2023-02-25T02:05:52.936Z,981.23
2023-02-25T02:06:52.934Z,981.17
2023-02-25T02:07:52.936Z,981.16
2023-02-25T02:08:52.956Z,981.16
2023-02-25T02:09:52.902Z,981.21
2023-02-25T02:10:52.902Z,981.18
2023-02-25T02:11:52.896Z,981.13
2023-02-25T02:12:52.880Z,981.09
2023-02-25T02:13:52.877Z,981.09
2023-02-25T02:14:52.910Z,981.11
2023-02-25T02:15:52.884Z,981.12
2023-02-25T02:16:52.850Z,981.18
2023-02-25T02:17:52.899Z,981.20
2023-02-25T02:18:52.839Z,981.18
2023-02-25T02:19:52.852Z,981.18
2023-02-25T02:20:52.834Z,981.18
2023-02-25T02:21:52.816Z,981.16
2023-02-25T02:22:52.805Z,981.22
2023-02-25T02:23:52.801Z,981.20
2023-02-25T02:24:52.832Z,981.21
2023-02-25T02:25:52.790Z,981.21
2023-02-25T02:26:52.782Z,981.23
2023-02-25T02:27:52.780Z,981.24
2023-02-25T02:28:52.757Z,981.24
2023-02-25T02:29:52.777Z,981.22
2023-02-25T02:30:52.790Z,981.21
2023-02-25T02:31:52.849Z,981.12
2023-02-25T02:32:52.734Z,981.15
2023-02-25T02:33:52.732Z,981.10
2023-02-25T02:34:52.766Z,981.04
2023-02-25T02:35:52.717Z,981.02
2023-02-25T02:36:52.712Z,980.82
2023-02-25T02:37:52.692Z,980.91
2023-02-25T02:38:52.693Z,981.01
2023-02-25T02:39:52.711Z,981.01
2023-02-25T02:40:52.675Z,980.97
2023-02-25T02:41:52.670Z,980.96
2023-02-25T02:42:52.658Z,981.12
2023-02-25T02:43:52.692Z,981.10
2023-02-25T02:44:52.664Z,981.14
2023-02-25T02:45:52.682Z,981.19
2023-02-25T02:46:52.640Z,981.12
2023-02-25T02:47:52.617Z,981.17
2023-02-25T02:48:52.621Z,981.12
2023-02-25T02:49:52.637Z,981.28
2023-02-25T02:50:52.577Z,981.31
2023-02-25T02:51:53.604Z,981.30
2023-02-25T02:52:52.597Z,981.26
2023-02-25T02:53:52.572Z,981.25
2023-02-25T02:54:52.591Z,981.32
2023-02-25T02:55:52.568Z,981.33
2023-02-25T02:56:52.557Z,981.37
2023-02-25T02:57:52.588Z,981.36
2023-02-25T02:58:52.533Z,981.39
2023-02-25T02:59:52.564Z,981.37
2023-02-25T03:00:52.566Z,981.38
2023-02-25T03:01:52.538Z,981.43
2023-02-25T03:02:52.506Z,981.33
2023-02-25T03:03:52.548Z,981.33
2023-02-25T03:04:52.496Z,981.30
2023-02-25T03:05:52.509Z,981.19
2023-02-25T03:06:52.497Z,981.22
2023-02-25T03:07:52.482Z,981.19
2023-02-25T03:08:52.457Z,981.17
2023-02-25T03:09:52.445Z,981.17
2023-02-25T03:10:52.528Z,981.17
2023-02-25T03:11:52.447Z,981.05
2023-02-25T03:12:52.428Z,981.16
2023-02-25T03:13:52.439Z,981.09
2023-02-25T03:14:52.415Z,981.18
2023-02-25T03:15:52.453Z,981.15
2023-02-25T03:16:52.459Z,981.11
2023-02-25T03:17:52.382Z,981.15
2023-02-25T03:18:52.385Z,981.11
2023-02-25T03:19:52.384Z,981.19
2023-02-25T03:20:52.396Z,981.19
2023-02-25T03:21:52.385Z,981.15
2023-02-25T03:22:52.366Z,981.16
2023-02-25T03:23:52.352Z,981.19
2023-02-25T03:24:52.362Z,981.18
2023-02-25T03:25:52.366Z,981.10
2023-02-25T03:26:52.338Z,981.17
2023-02-25T03:27:52.326Z,981.25
2023-02-25T03:28:52.353Z,981.21
2023-02-25T03:29:52.318Z,981.24
2023-02-25T03:30:52.400Z,981.25
2023-02-25T03:31:52.387Z,981.25
2023-02-25T03:32:52.407Z,981.21
2023-02-25T03:33:52.282Z,981.27
2023-02-25T03:34:52.281Z,981.31
2023-02-25T03:35:52.306Z,981.32
2023-02-25T03:36:52.271Z,981.33
2023-02-25T03:37:52.258Z,981.42
2023-02-25T03:38:52.235Z,981.33
2023-02-25T03:39:52.245Z,981.40
2023-02-25T03:40:52.245Z,981.33
2023-02-25T03:41:52.221Z,981.33
2023-02-25T03:42:52.217Z,981.48
2023-02-25T03:43:52.202Z,981.44
2023-02-25T03:44:52.194Z,981.43
2023-02-25T03:45:52.228Z,981.47
2023-02-25T03:46:52.175Z,981.50
2023-02-25T03:47:52.177Z,981.52
2023-02-25T03:48:52.161Z,981.59
2023-02-25T03:49:52.156Z,981.59
2023-02-25T03:50:52.187Z,981.57
2023-02-25T03:51:52.149Z,981.61
2023-02-25T03:52:52.137Z,981.66
2023-02-25T03:53:52.131Z,981.71
2023-02-25T03:54:52.152Z,981.66
2023-02-25T03:55:52.137Z,981.76
2023-02-25T03:56:52.154Z,981.71
2023-02-25T03:57:52.091Z,981.77
2023-02-25T03:58:52.078Z,981.75
2023-02-25T03:59:52.084Z,981.75
2023-02-25T04:00:52.095Z,981.79
2023-02-25T04:01:52.053Z,981.79
2023-02-25T04:02:52.049Z,981.79
2023-02-25T04:03:52.047Z,981.80
2023-02-25T04:04:52.048Z,981.87
2023-02-25T04:05:52.063Z,981.81
2023-02-25T04:06:52.008Z,981.87
2023-02-25T04:07:52.015Z,981.82
2023-02-25T04:08:52.019Z,981.78
2023-02-25T04:09:51.994Z,981.79
2023-02-25T04:10:51.978Z,981.82
2023-02-25T04:11:53.006Z,981.84
2023-02-25T04:12:51.984Z,981.87
2023-02-25T04:13:51.959Z,981.88
2023-02-25T04:14:51.964Z,981.87
2023-02-25T04:15:51.996Z,981.84
2023-02-25T04:16:52.286Z,981.83
2023-02-25T04:17:51.936Z,981.82
2023-02-25T04:18:51.925Z,981.80
2023-02-25T04:19:51.919Z,981.85
2023-02-25T04:20:51.939Z,981.86
2023-02-25T04:21:52.337Z,981.82
2023-02-25T04:22:51.897Z,981.79
2023-02-25T04:23:51.901Z,981.78
2023-02-25T04:24:51.889Z,981.76
2023-02-25T04:25:51.871Z,981.84
2023-02-25T04:26:51.893Z,981.85
2023-02-25T04:27:51.870Z,981.80
2023-02-25T04:28:51.844Z,981.81
2023-02-25T04:29:51.847Z,981.84
2023-02-25T04:30:51.892Z,981.93
2023-02-25T04:31:51.938Z,981.94
2023-02-25T04:32:52.050Z,981.89
2023-02-25T04:33:51.837Z,981.90
2023-02-25T04:34:51.819Z,981.87
2023-02-25T04:35:51.803Z,981.83
2023-02-25T04:36:51.835Z,981.84
2023-02-25T04:37:51.801Z,981.81
2023-02-25T04:38:51.794Z,981.91
2023-02-25T04:39:51.830Z,981.95
2023-02-25T04:40:51.780Z,981.93
2023-02-25T04:41:51.816Z,981.92
2023-02-25T04:42:51.776Z,981.90
2023-02-25T04:43:52.749Z,981.99
2023-02-25T04:44:51.749Z,981.90
2023-02-25T04:45:51.734Z,981.90
2023-02-25T04:46:52.010Z,981.98
2023-02-25T04:47:51.716Z,981.93
2023-02-25T04:48:51.713Z,981.94
2023-02-25T04:49:51.704Z,982.00
2023-02-25T04:50:52.716Z,982.01
2023-02-25T04:51:51.715Z,981.97
2023-02-25T04:52:51.678Z,982.06
2023-02-25T04:53:51.674Z,982.03
2023-02-25T04:54:51.671Z,981.99
2023-02-25T04:55:51.669Z,982.08
2023-02-25T04:56:51.680Z,982.00
2023-02-25T04:57:51.669Z,982.04
2023-02-25T04:58:51.631Z,982.07
2023-02-25T04:59:51.623Z,982.09
2023-02-25T05:00:51.615Z,982.10
2023-02-25T05:01:51.686Z,982.17
2023-02-25T05:02:51.607Z,982.06
2023-02-25T05:03:51.601Z,982.09
2023-02-25T05:04:51.669Z,982.04
2023-02-25T05:05:51.585Z,982.09
2023-02-25T05:06:51.596Z,982.06
2023-02-25T05:07:52.568Z,981.99
2023-02-25T05:08:51.572Z,982.00
2023-02-25T05:09:51.562Z,982.04
2023-02-25T05:10:51.562Z,982.02
2023-02-25T05:11:51.566Z,982.05
2023-02-25T05:12:51.548Z,982.07
2023-02-25T05:13:51.542Z,982.04
2023-02-25T05:14:51.525Z,982.05
2023-02-25T05:15:51.595Z,982.11
2023-02-25T05:16:51.535Z,982.14
2023-02-25T05:17:51.515Z,982.10
2023-02-25T05:18:51.494Z,982.11
2023-02-25T05:19:51.484Z,982.10
2023-02-25T05:20:51.496Z,982.16
2023-02-25T05:21:51.501Z,982.13
2023-02-25T05:22:51.462Z,982.13
2023-02-25T05:23:51.458Z,982.19
2023-02-25T05:24:51.452Z,982.20
2023-02-25T05:25:51.441Z,982.17
2023-02-25T05:26:51.464Z,982.18
2023-02-25T05:27:51.484Z,982.16
2023-02-25T05:28:51.413Z,982.20
2023-02-25T05:29:51.438Z,982.19
2023-02-25T05:30:51.429Z,982.20
2023-02-25T05:31:51.580Z,982.19
2023-02-25T05:32:51.465Z,982.17
2023-02-25T05:33:51.378Z,982.19
2023-02-25T05:34:51.380Z,982.12
2023-02-25T05:35:51.385Z,982.14
2023-02-25T05:36:51.359Z,982.16
2023-02-25T05:37:51.374Z,982.10
2023-02-25T05:38:51.352Z,982.14
2023-02-25T05:39:51.338Z,982.10
2023-02-25T05:40:51.336Z,982.12
2023-02-25T05:41:51.513Z,982.11
2023-02-25T05:42:51.328Z,982.09
2023-02-25T05:43:51.311Z,982.12
2023-02-25T05:44:51.296Z,982.14
2023-02-25T05:45:51.297Z,982.13
2023-02-25T05:46:51.350Z,982.14
2023-02-25T05:47:51.306Z,982.10
2023-02-25T05:48:51.280Z,982.09
2023-02-25T05:49:51.254Z,982.08
2023-02-25T05:50:51.296Z,982.08
2023-02-25T05:51:51.237Z,982.08
2023-02-25T05:52:51.267Z,982.07
2023-02-25T05:53:51.225Z,982.11
2023-02-25T05:54:51.227Z,982.09
2023-02-25T05:55:51.216Z,982.07
2023-02-25T05:56:51.232Z,982.10
2023-02-25T05:57:51.230Z,982.12
2023-02-25T05:58:51.181Z,982.11
2023-02-25T05:59:51.184Z,982.12
2023-02-25T06:00:51.182Z,982.04
2023-02-25T06:01:51.243Z,982.11
2023-02-25T06:02:51.242Z,982.15
2023-02-25T06:03:51.148Z,982.08
2023-02-25T06:04:51.143Z,982.16
2023-02-25T06:05:51.146Z,982.06
2023-02-25T06:06:51.127Z,982.07
2023-02-25T06:07:51.139Z,982.07
2023-02-25T06:08:51.118Z,982.07
2023-02-25T06:09:51.123Z,982.10
2023-02-25T06:10:51.092Z,982.09
2023-02-25T06:11:51.100Z,982.10
2023-02-25T06:12:51.116Z,982.14
2023-02-25T06:13:51.073Z,982.16
2023-02-25T06:14:51.082Z,982.15
2023-02-25T06:15:51.060Z,982.17
2023-02-25T06:16:51.148Z,982.13
2023-02-25T06:17:51.081Z,982.13
2023-02-25T06:18:51.044Z,982.18
2023-02-25T06:19:51.030Z,982.12
2023-02-25T06:20:51.024Z,982.21
2023-02-25T06:21:51.023Z,982.18
2023-02-25T06:22:51.033Z,982.29
2023-02-25T06:23:51.009Z,982.31
2023-02-25T06:24:51.999Z,982.31
2023-02-25T06:25:50.984Z,982.28
2023-02-25T06:26:50.985Z,982.29
2023-02-25T06:27:51.010Z,982.31
2023-02-25T06:28:50.990Z,982.36
2023-02-25T06:29:50.971Z,982.26
2023-02-25T06:30:50.982Z,982.31
2023-02-25T06:31:51.050Z,982.30
2023-02-25T06:32:51.042Z,982.33
2023-02-25T06:33:51.934Z,982.34
2023-02-25T06:34:50.926Z,982.38
2023-02-25T06:35:50.913Z,982.35
2023-02-25T06:36:50.899Z,982.48
2023-02-25T06:37:50.905Z,982.51
2023-02-25T06:38:50.923Z,982.40
2023-02-25T06:39:50.880Z,982.41
2023-02-25T06:40:50.880Z,982.46
2023-02-25T06:41:50.877Z,982.53
2023-02-25T06:42:50.870Z,982.52
2023-02-25T06:43:50.891Z,982.60
2023-02-25T06:44:50.868Z,982.52
2023-02-25T06:45:50.924Z,982.54
2023-02-25T06:46:50.832Z,982.53
2023-02-25T06:47:50.832Z,982.47
2023-02-25T06:48:50.862Z,982.54
2023-02-25T06:49:50.818Z,982.56
2023-02-25T06:50:50.812Z,982.55
2023-02-25T06:51:50.795Z,982.63
2023-02-25T06:52:50.794Z,982.66
2023-02-25T06:53:50.804Z,982.67
2023-02-25T06:54:50.773Z,982.68
2023-02-25T06:55:50.781Z,982.75
2023-02-25T06:56:50.760Z,982.66
2023-02-25T06:57:51.401Z,982.77
2023-02-25T06:58:50.802Z,982.82
2023-02-25T06:59:50.729Z,982.80
2023-02-25T07:00:50.828Z,982.73
2023-02-25T07:01:50.821Z,982.77
2023-02-25T07:02:50.705Z,982.75
2023-02-25T07:03:50.758Z,982.71
2023-02-25T07:04:50.786Z,982.80
2023-02-25T07:05:50.694Z,982.88
2023-02-25T07:06:50.674Z,982.80
2023-02-25T07:07:50.808Z,982.83
2023-02-25T07:08:50.792Z,982.89
2023-02-25T07:09:50.700Z,982.82
2023-02-25T07:10:50.657Z,982.83
2023-02-25T07:11:50.827Z,982.85
2023-02-25T07:12:50.659Z,982.86
2023-02-25T07:13:50.657Z,982.93
2023-02-25T07:14:50.630Z,982.86
2023-02-25T07:15:51.967Z,982.92
2023-02-25T07:16:51.215Z,982.83
2023-02-25T07:17:50.601Z,982.84
2023-02-25T07:18:50.611Z,982.79
2023-02-25T07:19:50.595Z,982.93
2023-02-25T07:20:50.588Z,982.87
2023-02-25T07:21:50.576Z,982.97
2023-02-25T07:22:50.565Z,982.98
2023-02-25T07:23:50.590Z,982.93
2023-02-25T07:24:50.609Z,983.02
2023-02-25T07:25:50.540Z,983.02
2023-02-25T07:26:50.538Z,982.97
2023-02-25T07:27:50.535Z,982.94
2023-02-25T07:28:50.573Z,982.92
2023-02-25T07:29:50.515Z,982.97
2023-02-25T07:30:50.565Z,982.97
2023-02-25T07:31:50.665Z,982.97
2023-02-25T07:32:50.509Z,982.89
2023-02-25T07:33:50.529Z,982.86
2023-02-25T07:34:50.478Z,982.86
2023-02-25T07:35:50.469Z,982.91
2023-02-25T07:36:50.460Z,982.85
2023-02-25T07:37:50.445Z,982.83
2023-02-25T07:38:50.472Z,982.74
2023-02-25T07:39:50.440Z,982.81
2023-02-25T07:40:50.419Z,982.90
2023-02-25T07:41:50.421Z,982.88
2023-02-25T07:42:50.403Z,982.89
2023-02-25T07:43:50.434Z,982.88
2023-02-25T07:44:50.409Z,982.77
2023-02-25T07:45:50.425Z,982.90
2023-02-25T07:46:50.381Z,982.92
2023-02-25T07:47:50.384Z,982.88
2023-02-25T07:48:50.405Z,982.92
2023-02-25T07:49:50.365Z,982.87
2023-02-25T07:50:50.358Z,982.97
2023-02-25T07:51:50.344Z,983.03
2023-02-25T07:52:50.367Z,983.01
2023-02-25T07:53:50.380Z,983.00
2023-02-25T07:54:50.328Z,983.02
2023-02-25T07:55:50.342Z,983.03
2023-02-25T07:56:50.331Z,983.07
2023-02-25T07:57:50.301Z,983.11
2023-02-25T07:58:50.315Z,983.10
2023-02-25T07:59:50.291Z,983.15
2023-02-25T08:00:50.288Z,983.10
2023-02-25T08:01:50.301Z,983.13
2023-02-25T08:02:50.296Z,983.13
2023-02-25T08:03:50.305Z,983.13
2023-02-25T08:04:50.383Z,983.15
2023-02-25T08:05:50.260Z,983.16
2023-02-25T08:06:50.233Z,983.08
2023-02-25T08:07:50.223Z,983.11
2023-02-25T08:08:50.243Z,983.08
2023-02-25T08:09:50.206Z,983.03
2023-02-25T08:10:50.206Z,983.05
2023-02-25T08:11:50.203Z,983.10
2023-02-25T08:12:50.194Z,983.12
2023-02-25T08:13:50.210Z,983.13
2023-02-25T08:14:50.184Z,983.14
2023-02-25T08:15:50.247Z,983.19
2023-02-25T08:16:50.163Z,983.20
2023-02-25T08:17:50.191Z,983.20
2023-02-25T08:18:50.198Z,983.17
2023-02-25T08:19:50.157Z,983.29
2023-02-25T08:20:50.136Z,983.18
2023-02-25T08:21:50.115Z,983.25
2023-02-25T08:22:50.139Z,983.25
2023-02-25T08:23:50.135Z,983.22
2023-02-25T08:24:50.150Z,983.19
2023-02-25T08:25:50.089Z,983.21
2023-02-25T08:26:50.112Z,983.16
2023-02-25T08:27:50.077Z,983.19
2023-02-25T08:28:50.096Z,983.20
2023-02-25T08:29:50.068Z,983.17
2023-02-25T08:30:50.101Z,983.21
2023-02-25T08:31:50.295Z,983.23
2023-02-25T08:32:50.119Z,983.25
2023-02-25T08:33:50.065Z,983.31
2023-02-25T08:34:50.028Z,983.32
2023-02-25T08:35:50.022Z,983.35
2023-02-25T08:36:50.014Z,983.33
2023-02-25T08:37:50.026Z,983.38
2023-02-25T08:38:50.047Z,983.45
2023-02-25T08:39:49.987Z,983.42
2023-02-25T08:40:50.017Z,983.40
2023-02-25T08:41:49.994Z,983.46
2023-02-25T08:42:50.170Z,983.42
2023-02-25T08:43:49.999Z,983.47
2023-02-25T08:44:49.948Z,983.51
2023-02-25T08:45:49.935Z,983.59
2023-02-25T08:46:50.117Z,983.58
2023-02-25T08:47:49.924Z,983.62
2023-02-25T08:48:49.953Z,983.51
2023-02-25T08:49:49.904Z,983.51
2023-02-25T08:50:49.910Z,983.57
2023-02-25T08:51:49.918Z,983.65
2023-02-25T08:52:49.899Z,983.60
2023-02-25T08:53:49.919Z,983.65
2023-02-25T08:54:49.873Z,983.67
2023-02-25T08:55:49.864Z,983.64
2023-02-25T08:56:49.855Z,983.65
2023-02-25T08:57:49.851Z,983.61
2023-02-25T08:58:49.872Z,983.63
2023-02-25T08:59:49.834Z,983.71
2023-02-25T09:00:49.877Z,983.72
2023-02-25T09:01:49.825Z,983.69
2023-02-25T09:02:49.813Z,983.70
2023-02-25T09:03:49.795Z,983.74
2023-02-25T09:04:49.910Z,983.76
2023-02-25T09:05:49.795Z,983.78
2023-02-25T09:06:49.783Z,983.76
2023-02-25T09:07:49.760Z,983.76
2023-02-25T09:08:49.751Z,983.79
2023-02-25T09:09:49.791Z,983.78
2023-02-25T09:10:51.032Z,983.78
2023-02-25T09:11:50.732Z,983.83
2023-02-25T09:12:49.747Z,983.80
2023-02-25T09:13:49.722Z,983.78
2023-02-25T09:14:49.741Z,983.77
2023-02-25T09:15:49.717Z,983.82
2023-02-25T09:16:49.842Z,983.74
2023-02-25T09:17:49.694Z,983.77
2023-02-25T09:18:49.693Z,983.77
2023-02-25T09:19:49.697Z,983.85
2023-02-25T09:20:49.752Z,983.79
2023-02-25T09:21:49.650Z,983.80
2023-02-25T09:22:50.659Z,983.74
2023-02-25T09:23:49.646Z,983.78
2023-02-25T09:24:49.660Z,983.76
2023-02-25T09:25:49.646Z,983.81
2023-02-25T09:26:49.639Z,983.81
2023-02-25T09:27:49.626Z,983.76
2023-02-25T09:28:49.635Z,983.88
2023-02-25T09:29:49.638Z,983.78
2023-02-25T09:30:49.625Z,983.80
2023-02-25T09:31:49.838Z,983.80
2023-02-25T09:32:49.735Z,983.83
2023-02-25T09:33:49.580Z,983.76
2023-02-25T09:34:49.608Z,983.77
2023-02-25T09:35:49.556Z,983.67
2023-02-25T09:36:49.547Z,983.81
2023-02-25T09:37:49.551Z,983.84
2023-02-25T09:38:49.540Z,983.87
2023-02-25T09:39:49.558Z,983.86
2023-02-25T09:40:49.571Z,983.84
2023-02-25T09:41:49.523Z,983.89
2023-02-25T09:42:49.510Z,983.88
2023-02-25T09:43:49.495Z,983.78
2023-02-25T09:44:49.523Z,983.83
2023-02-25T09:45:49.684Z,983.80
2023-02-25T09:46:49.481Z,983.81
2023-02-25T09:47:49.526Z,983.80
2023-02-25T09:48:49.479Z,983.79
2023-02-25T09:49:49.485Z,983.80
2023-02-25T09:50:49.454Z,983.88
2023-02-25T09:51:49.442Z,983.88
2023-02-25T09:52:49.443Z,983.83
2023-02-25T09:53:49.534Z,983.75
2023-02-25T09:54:49.468Z,983.80
2023-02-25T09:55:49.424Z,983.93
2023-02-25T09:56:49.410Z,983.76
2023-02-25T09:57:49.431Z,983.85
2023-02-25T09:58:49.380Z,983.87
2023-02-25T09:59:50.452Z,983.90
2023-02-25T10:00:49.383Z,983.92
2023-02-25T10:01:49.407Z,983.98
2023-02-25T10:02:49.486Z,984.03
2023-02-25T10:03:49.357Z,984.06
2023-02-25T10:04:49.383Z,984.04
2023-02-25T10:05:49.343Z,984.10
2023-02-25T10:06:49.343Z,984.20
2023-02-25T10:07:49.324Z,984.16
2023-02-25T10:08:49.320Z,984.10
2023-02-25T10:09:49.338Z,984.11
2023-02-25T10:10:49.295Z,984.11
2023-02-25T10:11:49.286Z,984.10
2023-02-25T10:12:49.303Z,984.16
2023-02-25T10:13:49.276Z,984.12
2023-02-25T10:14:49.302Z,984.09
2023-02-25T10:15:52.785Z,984.22
2023-02-25T10:16:50.285Z,984.16
2023-02-25T10:17:49.237Z,984.18
2023-02-25T10:18:49.243Z,984.15
2023-02-25T10:19:49.254Z,984.15
2023-02-25T10:20:49.224Z,984.21
2023-02-25T10:21:49.249Z,984.17
2023-02-25T10:22:49.203Z,984.20
2023-02-25T10:23:49.205Z,984.28
2023-02-25T10:24:49.246Z,984.30
2023-02-25T10:25:49.178Z,984.34
2023-02-25T10:26:49.173Z,984.30
2023-02-25T10:27:49.172Z,984.34
2023-02-25T10:28:49.159Z,984.29
2023-02-25T10:29:49.196Z,984.33
2023-02-25T10:30:49.207Z,984.24
2023-02-25T10:31:49.251Z,984.25
2023-02-25T10:32:49.242Z,984.32
2023-02-25T10:33:49.123Z,984.40
2023-02-25T10:34:49.153Z,984.37
2023-02-25T10:35:49.103Z,984.37
2023-02-25T10:36:49.092Z,984.29
2023-02-25T10:37:49.095Z,984.39
2023-02-25T10:38:49.075Z,984.34
2023-02-25T10:39:49.077Z,984.43
2023-02-25T10:40:49.117Z,984.40
2023-02-25T10:41:49.108Z,984.38
2023-02-25T10:42:50.077Z,984.40
2023-02-25T10:43:49.079Z,984.48
2023-02-25T10:44:49.092Z,984.38
2023-02-25T10:45:49.090Z,984.41
2023-02-25T10:46:49.020Z,984.48
2023-02-25T10:47:49.020Z,984.44
2023-02-25T10:48:49.008Z,984.43
2023-02-25T10:49:48.992Z,984.40
2023-02-25T10:50:49.129Z,984.44
2023-02-25T10:51:48.986Z,984.38
2023-02-25T10:52:48.974Z,984.35
2023-02-25T10:53:48.967Z,984.35
2023-02-25T10:54:49.014Z,984.33
2023-02-25T10:55:48.978Z,984.34
2023-02-25T10:56:48.935Z,984.32
2023-02-25T10:57:48.937Z,984.30
2023-02-25T10:58:48.924Z,984.29
2023-02-25T10:59:48.915Z,984.31
2023-02-25T11:00:48.938Z,984.39
2023-02-25T11:01:48.979Z,984.28
2023-02-25T11:02:48.927Z,984.35
2023-02-25T11:03:48.899Z,984.25
2023-02-25T11:04:48.882Z,984.25
2023-02-25T11:05:48.891Z,984.26
2023-02-25T11:06:48.869Z,984.41
2023-02-25T11:07:48.878Z,984.33
2023-02-25T11:08:48.856Z,984.24
2023-02-25T11:09:48.868Z,984.25
2023-02-25T11:10:48.863Z,984.23
2023-02-25T11:11:48.828Z,984.32
2023-02-25T11:12:48.823Z,984.27
2023-02-25T11:13:48.806Z,984.22
2023-02-25T11:14:49.573Z,984.27
2023-02-25T11:15:48.944Z,984.27
2023-02-25T11:16:48.796Z,984.29
2023-02-25T11:17:48.793Z,984.29
2023-02-25T11:18:48.779Z,984.23
2023-02-25T11:19:48.798Z,984.31
2023-02-25T11:20:48.789Z,984.18
2023-02-25T11:21:49.759Z,984.13
2023-02-25T11:22:48.758Z,984.07
2023-02-25T11:23:48.743Z,984.11
2023-02-25T11:24:48.735Z,984.18
2023-02-25T11:25:48.782Z,984.16
2023-02-25T11:26:48.758Z,984.14
2023-02-25T11:27:48.704Z,984.13
2023-02-25T11:28:48.716Z,984.11
2023-02-25T11:29:48.703Z,984.07
2023-02-25T11:30:48.805Z,984.19
2023-02-25T11:31:49.093Z,984.14
2023-02-25T11:32:48.729Z,984.16
2023-02-25T11:33:48.663Z,984.16
2023-02-25T11:34:48.683Z,984.27
2023-02-25T11:35:48.644Z,984.22
2023-02-25T11:36:50.877Z,984.30
2023-02-25T11:37:48.630Z,984.20
2023-02-25T11:38:48.646Z,984.18
2023-02-25T11:39:48.648Z,984.23
2023-02-25T11:40:48.611Z,984.24
2023-02-25T11:41:48.636Z,984.28
2023-02-25T11:42:48.602Z,984.20
2023-02-25T11:43:48.602Z,984.20
2023-02-25T11:44:48.591Z,984.33
2023-02-25T11:45:48.579Z,984.37
2023-02-25T11:46:48.648Z,984.51
2023-02-25T11:47:48.560Z,984.49
2023-02-25T11:48:48.564Z,984.50
2023-02-25T11:49:48.548Z,984.52
2023-02-25T11:50:48.537Z,984.57
2023-02-25T11:51:48.573Z,984.63
2023-02-25T11:52:48.523Z,984.71
2023-02-25T11:53:48.576Z,984.82
2023-02-25T11:54:48.511Z,984.86
2023-02-25T11:55:48.503Z,984.88
2023-02-25T11:56:48.600Z,984.91
2023-02-25T11:57:48.499Z,984.84
2023-02-25T11:58:48.492Z,984.86
2023-02-25T11:59:48.476Z,984.88
2023-02-25T12:00:48.477Z,984.73
2023-02-25T12:01:48.485Z,984.81
2023-02-25T12:02:48.515Z,984.84
2023-02-25T12:03:48.438Z,984.75
2023-02-25T12:04:48.436Z,984.76
2023-02-25T12:05:48.527Z,984.73
2023-02-25T12:06:48.445Z,984.66
2023-02-25T12:08:05.174Z,984.74
2023-02-25T12:08:50.396Z,984.68
2023-02-25T12:09:49.398Z,984.73
2023-02-25T12:10:48.388Z,984.72
2023-02-25T12:11:48.400Z,984.73
2023-02-25T12:12:48.381Z,984.74
2023-02-25T12:13:48.388Z,984.72
2023-02-25T12:14:48.361Z,984.77
2023-02-25T12:15:48.452Z,984.79
2023-02-25T12:16:48.370Z,984.80
2023-02-25T12:17:48.345Z,984.76
2023-02-25T12:18:48.331Z,984.84
2023-02-25T12:19:48.329Z,984.75
2023-02-25T12:20:48.329Z,984.79
2023-02-25T12:21:48.333Z,984.85
2023-02-25T12:22:48.321Z,984.80
2023-02-25T12:23:48.312Z,984.84
2023-02-25T12:24:48.285Z,984.87
2023-02-25T12:25:48.282Z,984.80
2023-02-25T12:26:48.338Z,984.84
2023-02-25T12:27:48.263Z,984.85
2023-02-25T12:28:49.803Z,984.82